sensor_id;sensor_type;location;lat;lon;timestamp;pressure;altitude;pressure_sealevel;temperature;humidity
50011;BME280;35899;50.352;19.390;2022-07-11T00:01:48;97892.58;;;11.67;72.69
50011;BME280;35899;50.352;19.390;2022-07-11T00:04:15;97900.70;;;11.63;73.05
50011;BME280;35899;50.352;19.390;2022-07-11T00:06:42;97901.88;;;11.59;73.28
50011;BME280;35899;50.352;19.390;2022-07-11T00:09:09;97899.05;;;11.56;73.47
50011;BME280;35899;50.352;19.390;2022-07-11T00:11:36;97905.99;;;11.55;73.59
50011;BME280;35899;50.352;19.390;2022-07-11T00:14:03;97903.05;;;11.54;73.90
50011;BME280;35899;50.352;19.390;2022-07-11T00:16:30;97899.50;;;11.55;74.15
50011;BME280;35899;50.352;19.390;2022-07-11T00:18:57;97910.98;;;11.59;74.16
50011;BME280;35899;50.352;19.390;2022-07-11T00:21:24;97909.35;;;11.63;74.34
50011;BME280;35899;50.352;19.390;2022-07-11T00:23:51;97898.11;;;11.68;74.47
50011;BME280;35899;50.352;19.390;2022-07-11T00:26:19;97903.44;;;11.72;74.52
50011;BME280;35899;50.352;19.390;2022-07-11T00:28:46;97904.89;;;11.77;74.50
50011;BME280;35899;50.352;19.390;2022-07-11T00:31:13;97902.75;;;11.82;74.48
50011;BME280;35899;50.352;19.390;2022-07-11T00:33:40;97907.02;;;11.83;74.38
50011;BME280;35899;50.352;19.390;2022-07-11T00:36:07;97905.34;;;11.82;74.36
50011;BME280;35899;50.352;19.390;2022-07-11T00:38:34;97905.83;;;11.81;74.45
50011;BME280;35899;50.352;19.390;2022-07-11T00:41:02;97903.23;;;11.81;74.45
50011;BME280;35899;50.352;19.390;2022-07-11T00:43:34;97904.53;;;11.81;74.48
50011;BME280;35899;50.352;19.390;2022-07-11T00:46:07;97904.63;;;11.80;74.59
50011;BME280;35899;50.352;19.390;2022-07-11T00:48:35;97906.75;;;11.80;74.66
50011;BME280;35899;50.352;19.390;2022-07-11T00:51:04;97903.70;;;11.81;74.76
50011;BME280;35899;50.352;19.390;2022-07-11T00:53:33;97904.42;;;11.83;74.84
50011;BME280;35899;50.352;19.390;2022-07-11T00:58:27;97901.70;;;11.84;75.06
50011;BME280;35899;50.352;19.390;2022-07-11T01:00:54;97904.16;;;11.86;75.06
50011;BME280;35899;50.352;19.390;2022-07-11T01:03:23;97905.02;;;11.86;75.19
50011;BME280;35899;50.352;19.390;2022-07-11T01:05:50;97902.64;;;11.89;75.24
50011;BME280;35899;50.352;19.390;2022-07-11T01:08:17;97901.38;;;11.95;75.33
50011;BME280;35899;50.352;19.390;2022-07-11T01:10:45;97899.86;;;11.98;75.33
50011;BME280;35899;50.352;19.390;2022-07-11T01:13:12;97902.58;;;12.02;75.42
50011;BME280;35899;50.352;19.390;2022-07-11T01:15:39;97899.50;;;12.02;75.39
50011;BME280;35899;50.352;19.390;2022-07-11T01:18:06;97899.61;;;12.06;75.43
50011;BME280;35899;50.352;19.390;2022-07-11T01:20:33;97903.52;;;12.06;75.43
50011;BME280;35899;50.352;19.390;2022-07-11T01:23:06;97908.23;;;12.07;75.47
50011;BME280;35899;50.352;19.390;2022-07-11T01:25:34;97907.08;;;12.05;75.48
50011;BME280;35899;50.352;19.390;2022-07-11T01:28:04;97902.92;;;12.03;75.50
50011;BME280;35899;50.352;19.390;2022-07-11T01:30:33;97904.33;;;12.01;75.52
50011;BME280;35899;50.352;19.390;2022-07-11T01:33:01;97909.19;;;12.00;75.62
50011;BME280;35899;50.352;19.390;2022-07-11T01:35:29;97910.49;;;12.00;75.71
50011;BME280;35899;50.352;19.390;2022-07-11T01:37:56;97914.88;;;12.00;75.72
50011;BME280;35899;50.352;19.390;2022-07-11T01:40:23;97917.34;;;12.01;75.86
50011;BME280;35899;50.352;19.390;2022-07-11T01:42:50;97912.87;;;12.03;76.03
50011;BME280;35899;50.352;19.390;2022-07-11T01:45:17;97913.58;;;12.05;75.99
50011;BME280;35899;50.352;19.390;2022-07-11T01:47:44;97909.20;;;12.06;76.07
50011;BME280;35899;50.352;19.390;2022-07-11T01:50:11;97907.30;;;12.08;76.14
50011;BME280;35899;50.352;19.390;2022-07-11T01:52:38;97900.80;;;12.08;76.07
50011;BME280;35899;50.352;19.390;2022-07-11T01:55:07;97900.91;;;12.12;76.26
50011;BME280;35899;50.352;19.390;2022-07-11T01:57:37;97894.78;;;12.13;76.19
50011;BME280;35899;50.352;19.390;2022-07-11T02:03:01;97892.77;;;12.17;76.30
50011;BME280;35899;50.352;19.390;2022-07-11T02:05:28;97887.31;;;12.20;76.30
50011;BME280;35899;50.352;19.390;2022-07-11T02:07:56;97883.78;;;12.21;76.30
50011;BME280;35899;50.352;19.390;2022-07-11T02:13:14;97887.80;;;12.25;76.39
50011;BME280;35899;50.352;19.390;2022-07-11T02:15:43;97885.53;;;12.26;76.34
50011;BME280;35899;50.352;19.390;2022-07-11T02:18:11;97888.98;;;12.26;76.44
50011;BME280;35899;50.352;19.390;2022-07-11T02:20:41;97890.28;;;12.26;76.44
50011;BME280;35899;50.352;19.390;2022-07-11T02:23:09;97884.59;;;12.27;76.44
50011;BME280;35899;50.352;19.390;2022-07-11T02:25:36;97885.78;;;12.28;76.64
50011;BME280;35899;50.352;19.390;2022-07-11T02:28:07;97885.67;;;12.30;76.69
50011;BME280;35899;50.352;19.390;2022-07-11T02:30:38;97885.41;;;12.33;76.78
50011;BME280;35899;50.352;19.390;2022-07-11T02:33:08;97889.09;;;12.36;76.86
50011;BME280;35899;50.352;19.390;2022-07-11T02:35:37;97888.49;;;12.38;76.82
50011;BME280;35899;50.352;19.390;2022-07-11T02:38:04;97881.17;;;12.38;76.81
50011;BME280;35899;50.352;19.390;2022-07-11T02:40:31;97889.20;;;12.40;76.84
50011;BME280;35899;50.352;19.390;2022-07-11T02:42:59;97894.62;;;12.43;76.90
50011;BME280;35899;50.352;19.390;2022-07-11T02:45:26;97887.30;;;12.42;76.82
50011;BME280;35899;50.352;19.390;2022-07-11T02:47:53;97892.39;;;12.44;76.87
50011;BME280;35899;50.352;19.390;2022-07-11T02:50:20;97892.28;;;12.45;77.01
50011;BME280;35899;50.352;19.390;2022-07-11T02:52:47;97895.59;;;12.47;77.05
50011;BME280;35899;50.352;19.390;2022-07-11T02:55:14;97890.27;;;12.49;77.04
50011;BME280;35899;50.352;19.390;2022-07-11T02:57:42;97898.64;;;12.52;77.11
50011;BME280;35899;50.352;19.390;2022-07-11T03:00:15;97896.17;;;12.57;77.19
50011;BME280;35899;50.352;19.390;2022-07-11T03:02:43;97898.88;;;12.61;77.22
50011;BME280;35899;50.352;19.390;2022-07-11T03:05:11;97899.58;;;12.63;77.27
50011;BME280;35899;50.352;19.390;2022-07-11T03:07:39;97901.59;;;12.65;77.30
50011;BME280;35899;50.352;19.390;2022-07-11T03:10:07;97903.71;;;12.65;77.27
50011;BME280;35899;50.352;19.390;2022-07-11T03:12:34;97903.38;;;12.64;77.16
50011;BME280;35899;50.352;19.390;2022-07-11T03:15:01;97901.22;;;12.64;77.21
50011;BME280;35899;50.352;19.390;2022-07-11T03:17:29;97901.92;;;12.66;77.27
50011;BME280;35899;50.352;19.390;2022-07-11T03:19:56;97898.02;;;12.66;77.29
50011;BME280;35899;50.352;19.390;2022-07-11T03:22:23;97905.60;;;12.69;77.31
50011;BME280;35899;50.352;19.390;2022-07-11T03:24:50;97903.70;;;12.71;77.27
50011;BME280;35899;50.352;19.390;2022-07-11T03:27:18;97904.77;;;12.74;77.17
50011;BME280;35899;50.352;19.390;2022-07-11T03:29:45;97907.83;;;12.74;77.16
50011;BME280;35899;50.352;19.390;2022-07-11T03:32:12;97903.92;;;12.74;77.20
50011;BME280;35899;50.352;19.390;2022-07-11T03:34:39;97906.41;;;12.75;77.28
50011;BME280;35899;50.352;19.390;2022-07-11T03:37:09;97910.20;;;12.77;77.28
50011;BME280;35899;50.352;19.390;2022-07-11T03:39:36;97907.71;;;12.75;77.22
50011;BME280;35899;50.352;19.390;2022-07-11T03:42:04;97909.27;;;12.78;77.25
50011;BME280;35899;50.352;19.390;2022-07-11T03:44:31;97905.95;;;12.81;77.34
50011;BME280;35899;50.352;19.390;2022-07-11T03:46:59;97907.10;;;12.83;77.20
50011;BME280;35899;50.352;19.390;2022-07-11T03:49:26;97911.16;;;12.81;77.22
50011;BME280;35899;50.352;19.390;2022-07-11T03:51:53;97910.42;;;12.79;77.22
50011;BME280;35899;50.352;19.390;2022-07-11T03:54:20;97912.09;;;12.80;77.24
50011;BME280;35899;50.352;19.390;2022-07-11T03:56:47;97914.33;;;12.79;77.29
50011;BME280;35899;50.352;19.390;2022-07-11T03:59:14;97916.70;;;12.82;77.42
50011;BME280;35899;50.352;19.390;2022-07-11T04:01:41;97917.77;;;12.85;77.39
50011;BME280;35899;50.352;19.390;2022-07-11T04:04:08;97921.90;;;12.88;77.46
50011;BME280;35899;50.352;19.390;2022-07-11T04:06:35;97925.80;;;12.94;77.49
50011;BME280;35899;50.352;19.390;2022-07-11T04:09:02;97921.66;;;12.97;77.63
50011;BME280;35899;50.352;19.390;2022-07-11T04:11:29;97921.88;;;12.99;77.72
50011;BME280;35899;50.352;19.390;2022-07-11T04:13:56;97922.57;;;13.01;77.59
50011;BME280;35899;50.352;19.390;2022-07-11T04:16:23;97928.16;;;13.02;77.69
50011;BME280;35899;50.352;19.390;2022-07-11T04:18:50;97920.89;;;13.06;77.86
50011;BME280;35899;50.352;19.390;2022-07-11T04:21:17;97927.06;;;13.05;77.56
50011;BME280;35899;50.352;19.390;2022-07-11T04:23:44;97927.06;;;13.05;77.55
50011;BME280;35899;50.352;19.390;2022-07-11T04:26:11;97921.14;;;13.08;77.64
50011;BME280;35899;50.352;19.390;2022-07-11T04:28:38;97928.12;;;13.14;77.70
50011;BME280;35899;50.352;19.390;2022-07-11T04:31:06;97920.73;;;13.19;77.59
50011;BME280;35899;50.352;19.390;2022-07-11T04:33:33;97916.56;;;13.27;77.56
50011;BME280;35899;50.352;19.390;2022-07-11T04:36:00;97912.87;;;13.36;77.29
50011;BME280;35899;50.352;19.390;2022-07-11T04:38:27;97915.67;;;13.44;77.23
50011;BME280;35899;50.352;19.390;2022-07-11T04:40:54;97906.40;;;13.51;77.04
50011;BME280;35899;50.352;19.390;2022-07-11T04:43:21;97916.29;;;13.63;76.87
50011;BME280;35899;50.352;19.390;2022-07-11T04:45:48;97913.41;;;13.72;76.71
50011;BME280;35899;50.352;19.390;2022-07-11T04:48:16;97912.89;;;13.78;76.52
50011;BME280;35899;50.352;19.390;2022-07-11T04:50:43;97919.01;;;13.88;76.48
50011;BME280;35899;50.352;19.390;2022-07-11T04:53:11;97924.97;;;14.00;76.17
50011;BME280;35899;50.352;19.390;2022-07-11T04:55:38;97930.48;;;14.06;75.94
50011;BME280;35899;50.352;19.390;2022-07-11T04:58:08;97929.23;;;14.16;75.81
50011;BME280;35899;50.352;19.390;2022-07-11T05:00:35;97929.02;;;14.29;75.83
50011;BME280;35899;50.352;19.390;2022-07-11T05:03:03;97927.29;;;14.39;75.52
50011;BME280;35899;50.352;19.390;2022-07-11T05:05:30;97934.23;;;14.44;75.29
50011;BME280;35899;50.352;19.390;2022-07-11T05:07:57;97928.14;;;14.50;74.87
50011;BME280;35899;50.352;19.390;2022-07-11T05:10:24;97931.64;;;14.54;74.54
50011;BME280;35899;50.352;19.390;2022-07-11T05:12:51;97934.95;;;14.56;74.45
50011;BME280;35899;50.352;19.390;2022-07-11T05:15:18;97935.83;;;14.57;74.19
50011;BME280;35899;50.352;19.390;2022-07-11T05:17:45;97931.31;;;14.53;74.01
50011;BME280;35899;50.352;19.390;2022-07-11T05:20:12;97930.34;;;14.54;74.22
50011;BME280;35899;50.352;19.390;2022-07-11T05:22:39;97930.61;;;14.57;74.34
50011;BME280;35899;50.352;19.390;2022-07-11T05:25:07;97929.63;;;14.58;73.94
50011;BME280;35899;50.352;19.390;2022-07-11T05:27:34;97929.17;;;14.58;73.97
50011;BME280;35899;50.352;19.390;2022-07-11T05:30:02;97934.86;;;14.58;73.90
50011;BME280;35899;50.352;19.390;2022-07-11T05:32:29;97933.22;;;14.57;73.78
50011;BME280;35899;50.352;19.390;2022-07-11T05:34:57;97935.91;;;14.61;73.61
50011;BME280;35899;50.352;19.390;2022-07-11T05:37:24;97934.42;;;14.68;73.40
50011;BME280;35899;50.352;19.390;2022-07-11T05:39:51;97939.05;;;14.80;73.26
50011;BME280;35899;50.352;19.390;2022-07-11T05:42:19;97933.30;;;14.96;73.40
50011;BME280;35899;50.352;19.390;2022-07-11T05:44:46;97940.47;;;15.13;73.15
50011;BME280;35899;50.352;19.390;2022-07-11T05:47:13;97940.50;;;15.33;73.02
50011;BME280;35899;50.352;19.390;2022-07-11T05:49:40;97941.86;;;15.66;72.91
50011;BME280;35899;50.352;19.390;2022-07-11T05:52:08;97941.12;;;16.13;72.68
50011;BME280;35899;50.352;19.390;2022-07-11T05:54:35;97942.03;;;16.59;72.01
50011;BME280;35899;50.352;19.390;2022-07-11T05:57:03;97937.52;;;17.07;71.31
50011;BME280;35899;50.352;19.390;2022-07-11T05:59:30;97937.44;;;17.52;70.49
50011;BME280;35899;50.352;19.390;2022-07-11T06:01:57;97934.20;;;17.76;69.68
50011;BME280;35899;50.352;19.390;2022-07-11T06:04:25;97935.78;;;18.17;69.35
50011;BME280;35899;50.352;19.390;2022-07-11T06:06:52;97931.56;;;18.25;67.80
50011;BME280;35899;50.352;19.390;2022-07-11T06:09:19;97933.69;;;18.25;67.08
50011;BME280;35899;50.352;19.390;2022-07-11T06:11:46;97932.58;;;18.28;66.34
50011;BME280;35899;50.352;19.390;2022-07-11T06:14:13;97941.64;;;18.33;66.01
50011;BME280;35899;50.352;19.390;2022-07-11T06:16:40;97938.81;;;18.31;65.75
50011;BME280;35899;50.352;19.390;2022-07-11T06:19:07;97938.95;;;18.25;65.15
50011;BME280;35899;50.352;19.390;2022-07-11T06:21:34;97938.56;;;18.16;65.44
50011;BME280;35899;50.352;19.390;2022-07-11T06:24:01;97938.00;;;18.04;65.30
50011;BME280;35899;50.352;19.390;2022-07-11T06:26:28;97946.34;;;17.95;65.44
50011;BME280;35899;50.352;19.390;2022-07-11T06:28:55;97943.95;;;17.84;64.85
50011;BME280;35899;50.352;19.390;2022-07-11T06:31:23;97940.02;;;17.84;64.84
50011;BME280;35899;50.352;19.390;2022-07-11T06:33:50;97945.98;;;17.94;64.78
50011;BME280;35899;50.352;19.390;2022-07-11T06:36:24;97939.86;;;18.12;64.84
50011;BME280;35899;50.352;19.390;2022-07-11T06:38:52;97935.98;;;18.20;63.95
50011;BME280;35899;50.352;19.390;2022-07-11T06:41:20;97944.84;;;18.23;63.44
50011;BME280;35899;50.352;19.390;2022-07-11T06:43:48;97942.09;;;18.29;63.35
50011;BME280;35899;50.352;19.390;2022-07-11T06:46:15;97941.44;;;18.31;63.34
50011;BME280;35899;50.352;19.390;2022-07-11T06:48:42;97940.34;;;18.38;63.02
50011;BME280;35899;50.352;19.390;2022-07-11T06:51:09;97947.62;;;18.52;62.79
50011;BME280;35899;50.352;19.390;2022-07-11T06:53:37;97944.98;;;18.52;62.53
50011;BME280;35899;50.352;19.390;2022-07-11T06:56:04;97936.44;;;18.50;62.92
50011;BME280;35899;50.352;19.390;2022-07-11T06:58:31;97938.75;;;18.49;62.30
50011;BME280;35899;50.352;19.390;2022-07-11T07:03:31;97939.05;;;18.46;62.48
50011;BME280;35899;50.352;19.390;2022-07-11T07:05:59;97936.83;;;18.63;61.94
50011;BME280;35899;50.352;19.390;2022-07-11T07:08:28;97939.05;;;18.80;61.02
50011;BME280;35899;50.352;19.390;2022-07-11T07:10:57;97928.44;;;19.06;61.06
50011;BME280;35899;50.352;19.390;2022-07-11T07:13:24;97930.77;;;19.30;60.12
50011;BME280;35899;50.352;19.390;2022-07-11T07:15:55;97933.09;;;19.29;59.69
50011;BME280;35899;50.352;19.390;2022-07-11T07:18:26;97928.45;;;19.10;59.20
50011;BME280;35899;50.352;19.390;2022-07-11T07:20:53;97934.01;;;18.99;59.10
50011;BME280;35899;50.352;19.390;2022-07-11T07:23:20;97924.95;;;18.98;58.92
50011;BME280;35899;50.352;19.390;2022-07-11T07:25:47;97910.38;;;19.16;58.96
50011;BME280;35899;50.352;19.390;2022-07-11T07:28:15;97920.70;;;19.05;58.38
50011;BME280;35899;50.352;19.390;2022-07-11T07:30:42;97914.95;;;19.09;57.82
50011;BME280;35899;50.352;19.390;2022-07-11T07:33:11;97909.69;;;19.05;56.43
50011;BME280;35899;50.352;19.390;2022-07-11T07:35:39;97903.30;;;19.20;56.69
50011;BME280;35899;50.352;19.390;2022-07-11T07:38:06;97909.23;;;19.39;56.22
50011;BME280;35899;50.352;19.390;2022-07-11T07:40:33;97905.78;;;19.50;55.19
50011;BME280;35899;50.352;19.390;2022-07-11T07:43:00;97908.23;;;19.64;55.30
50011;BME280;35899;50.352;19.390;2022-07-11T07:45:27;97908.74;;;19.60;55.05
50011;BME280;35899;50.352;19.390;2022-07-11T07:47:54;97895.89;;;19.61;54.91
50011;BME280;35899;50.352;19.390;2022-07-11T07:50:21;97899.02;;;19.89;55.08
50011;BME280;35899;50.352;19.390;2022-07-11T07:52:49;97899.77;;;20.22;54.33
50011;BME280;35899;50.352;19.390;2022-07-11T07:55:16;97905.16;;;20.37;54.05
50011;BME280;35899;50.352;19.390;2022-07-11T07:57:44;97901.72;;;20.28;52.86
50011;BME280;35899;50.352;19.390;2022-07-11T08:00:12;97895.38;;;19.98;52.85
50011;BME280;35899;50.352;19.390;2022-07-11T08:03:03;97899.52;;;19.68;53.20
50011;BME280;35899;50.352;19.390;2022-07-11T08:05:31;97909.06;;;19.32;52.81
50011;BME280;35899;50.352;19.390;2022-07-11T08:07:59;97905.08;;;18.99;52.90
50011;BME280;35899;50.352;19.390;2022-07-11T08:10:26;97915.55;;;18.83;52.95
50011;BME280;35899;50.352;19.390;2022-07-11T08:12:53;97903.83;;;18.73;53.15
50011;BME280;35899;50.352;19.390;2022-07-11T08:15:20;97908.42;;;18.71;53.70
50011;BME280;35899;50.352;19.390;2022-07-11T08:17:47;97913.11;;;18.85;54.10
50011;BME280;35899;50.352;19.390;2022-07-11T08:20:14;97903.11;;;19.01;53.54
50011;BME280;35899;50.352;19.390;2022-07-11T08:22:41;97899.16;;;19.09;53.71
50011;BME280;35899;50.352;19.390;2022-07-11T08:25:08;97893.61;;;19.29;53.65
50011;BME280;35899;50.352;19.390;2022-07-11T08:27:35;97891.95;;;19.52;53.10
50011;BME280;35899;50.352;19.390;2022-07-11T08:30:05;97882.25;;;19.86;52.69
50011;BME280;35899;50.352;19.390;2022-07-11T08:32:37;97882.77;;;20.29;52.28
50011;BME280;35899;50.352;19.390;2022-07-11T08:35:07;97872.59;;;20.69;50.76
50011;BME280;35899;50.352;19.390;2022-07-11T08:37:34;97873.56;;;20.96;50.85
50011;BME280;35899;50.352;19.390;2022-07-11T08:40:03;97882.27;;;20.77;49.62
50011;BME280;35899;50.352;19.390;2022-07-11T08:42:31;97871.02;;;20.44;49.30
50011;BME280;35899;50.352;19.390;2022-07-11T08:45:01;97872.67;;;20.41;49.81
50011;BME280;35899;50.352;19.390;2022-07-11T08:47:28;97873.92;;;20.61;50.06
50011;BME280;35899;50.352;19.390;2022-07-11T08:49:58;97870.66;;;20.51;49.45
50011;BME280;35899;50.352;19.390;2022-07-11T08:52:26;97871.08;;;20.27;49.25
50011;BME280;35899;50.352;19.390;2022-07-11T08:54:55;97870.72;;;20.35;49.85
50011;BME280;35899;50.352;19.390;2022-07-11T08:57:22;97870.98;;;20.56;49.21
50011;BME280;35899;50.352;19.390;2022-07-11T08:59:52;97883.95;;;20.70;48.15
50011;BME280;35899;50.352;19.390;2022-07-11T09:02:23;97880.92;;;20.81;48.02
50011;BME280;35899;50.352;19.390;2022-07-11T09:04:50;97915.41;;;20.76;47.63
50011;BME280;35899;50.352;19.390;2022-07-11T09:07:17;97919.89;;;20.11;46.88
50011;BME280;35899;50.352;19.390;2022-07-11T09:09:44;97925.66;;;19.08;48.33
50011;BME280;35899;50.352;19.390;2022-07-11T09:12:16;97957.45;;;17.71;51.25
50011;BME280;35899;50.352;19.390;2022-07-11T09:14:48;97954.83;;;16.48;53.31
50011;BME280;35899;50.352;19.390;2022-07-11T09:17:24;97962.30;;;15.57;55.30
50011;BME280;35899;50.352;19.390;2022-07-11T09:19:56;97954.44;;;14.98;56.67
50011;BME280;35899;50.352;19.390;2022-07-11T09:22:24;97929.42;;;14.80;58.22
50011;BME280;35899;50.352;19.390;2022-07-11T09:25:11;97930.98;;;15.02;59.41
50011;BME280;35899;50.352;19.390;2022-07-11T09:27:51;97919.65;;;15.37;60.28
50011;BME280;35899;50.352;19.390;2022-07-11T09:33:02;97919.13;;;15.67;61.45
50011;BME280;35899;50.352;19.390;2022-07-11T09:35:38;97908.20;;;15.77;61.84
50011;BME280;35899;50.352;19.390;2022-07-11T09:38:12;97907.12;;;15.93;62.66
50011;BME280;35899;50.352;19.390;2022-07-11T09:40:45;97907.00;;;16.09;62.66
50011;BME280;35899;50.352;19.390;2022-07-11T09:43:14;97892.64;;;16.22;62.45
50011;BME280;35899;50.352;19.390;2022-07-11T09:45:45;97890.79;;;16.33;62.85
50011;BME280;35899;50.352;19.390;2022-07-11T09:48:13;97885.99;;;16.42;62.87
50011;BME280;35899;50.352;19.390;2022-07-11T09:50:54;97881.61;;;16.74;63.43
50011;BME280;35899;50.352;19.390;2022-07-11T09:53:25;97885.14;;;16.97;62.49
50011;BME280;35899;50.352;19.390;2022-07-11T09:55:52;97882.87;;;17.38;62.56
50011;BME280;35899;50.352;19.390;2022-07-11T09:58:19;97879.45;;;17.86;63.50
50011;BME280;35899;50.352;19.390;2022-07-11T10:00:49;97877.03;;;18.19;64.25
50011;BME280;35899;50.352;19.390;2022-07-11T10:03:20;97874.17;;;18.46;63.61
50011;BME280;35899;50.352;19.390;2022-07-11T10:05:51;97874.98;;;18.89;64.18
50011;BME280;35899;50.352;19.390;2022-07-11T10:08:18;97885.38;;;19.32;63.15
50011;BME280;35899;50.352;19.390;2022-07-11T10:10:45;97879.73;;;20.05;61.74
50011;BME280;35899;50.352;19.390;2022-07-11T10:13:12;97885.49;;;20.87;60.00
50011;BME280;35899;50.352;19.390;2022-07-11T10:15:41;97882.49;;;21.18;59.11
50011;BME280;35899;50.352;19.390;2022-07-11T10:21:15;97896.84;;;20.09;56.91
50011;BME280;35899;50.352;19.390;2022-07-11T10:23:56;97922.88;;;19.13;56.06
50011;BME280;35899;50.352;19.390;2022-07-11T10:29:27;97948.45;;;17.38;58.18
50011;BME280;35899;50.352;19.390;2022-07-11T10:32:09;97935.25;;;16.66;59.61
50011;BME280;35899;50.352;19.390;2022-07-11T10:34:38;97949.98;;;16.16;60.44
50011;BME280;35899;50.352;19.390;2022-07-11T10:37:07;97950.74;;;15.69;61.84
50011;BME280;35899;50.352;19.390;2022-07-11T10:39:36;97948.42;;;15.37;63.19
50011;BME280;35899;50.352;19.390;2022-07-11T10:42:06;97945.17;;;15.19;63.83
50011;BME280;35899;50.352;19.390;2022-07-11T10:44:54;97933.55;;;15.18;64.81
50011;BME280;35899;50.352;19.390;2022-07-11T10:47:40;97932.50;;;15.24;65.19
50011;BME280;35899;50.352;19.390;2022-07-11T10:53:08;97920.43;;;15.67;66.15
50011;BME280;35899;50.352;19.390;2022-07-11T10:55:39;97924.38;;;15.86;66.46
50011;BME280;35899;50.352;19.390;2022-07-11T10:58:24;97923.28;;;16.02;66.56
50011;BME280;35899;50.352;19.390;2022-07-11T11:01:14;97928.76;;;16.19;66.08
50011;BME280;35899;50.352;19.390;2022-07-11T11:03:43;97922.67;;;16.42;65.89
50011;BME280;35899;50.352;19.390;2022-07-11T11:06:11;97925.92;;;16.81;65.78
50011;BME280;35899;50.352;19.390;2022-07-11T11:08:41;97926.09;;;17.30;65.57
50011;BME280;35899;50.352;19.390;2022-07-11T11:16:49;97917.58;;;19.09;63.46
50011;BME280;35899;50.352;19.390;2022-07-11T11:22:19;97927.66;;;21.19;59.65
50011;BME280;35899;50.352;19.390;2022-07-11T11:24:50;97915.44;;;21.68;57.68
50011;BME280;35899;50.352;19.390;2022-07-11T11:27:23;97914.82;;;22.34;56.95
50011;BME280;35899;50.352;19.390;2022-07-11T11:29:54;97915.86;;;22.29;55.73
50011;BME280;35899;50.352;19.390;2022-07-11T11:32:29;97918.19;;;22.23;55.39
50011;BME280;35899;50.352;19.390;2022-07-11T11:34:57;97920.15;;;21.96;54.99
50011;BME280;35899;50.352;19.390;2022-07-11T11:37:25;97926.64;;;21.74;55.09
50011;BME280;35899;50.352;19.390;2022-07-11T11:39:59;97932.64;;;21.64;55.10
50011;BME280;35899;50.352;19.390;2022-07-11T11:42:27;97927.06;;;21.63;55.47
50011;BME280;35899;50.352;19.390;2022-07-11T11:44:58;97931.50;;;21.62;55.01
50011;BME280;35899;50.352;19.390;2022-07-11T11:47:30;97928.65;;;21.68;54.88
50011;BME280;35899;50.352;19.390;2022-07-11T11:49:58;97932.82;;;21.62;54.90
50011;BME280;35899;50.352;19.390;2022-07-11T11:52:27;97930.80;;;21.45;54.54
50011;BME280;35899;50.352;19.390;2022-07-11T11:54:56;97928.78;;;21.28;55.09
50011;BME280;35899;50.352;19.390;2022-07-11T11:57:27;97926.41;;;21.11;56.06
50011;BME280;35899;50.352;19.390;2022-07-11T11:59:55;97927.03;;;20.89;55.26
50011;BME280;35899;50.352;19.390;2022-07-11T12:02:30;97921.38;;;20.69;55.19
50011;BME280;35899;50.352;19.390;2022-07-11T12:04:57;97920.23;;;20.60;55.23
50011;BME280;35899;50.352;19.390;2022-07-11T12:07:27;97931.93;;;20.57;55.19
50011;BME280;35899;50.352;19.390;2022-07-11T12:09:56;97925.02;;;20.64;55.11
50011;BME280;35899;50.352;19.390;2022-07-11T12:12:30;97931.30;;;20.51;55.08
50011;BME280;35899;50.352;19.390;2022-07-11T12:15:32;97926.42;;;20.27;55.13
50011;BME280;35899;50.352;19.390;2022-07-11T12:18:03;97928.94;;;20.08;55.49
50011;BME280;35899;50.352;19.390;2022-07-11T12:23:12;97919.44;;;19.87;55.70
50011;BME280;35899;50.352;19.390;2022-07-11T12:25:42;97922.58;;;19.86;56.18
50011;BME280;35899;50.352;19.390;2022-07-11T12:28:11;97915.47;;;19.95;55.70
50011;BME280;35899;50.352;19.390;2022-07-11T12:30:38;97924.17;;;20.08;55.71
50011;BME280;35899;50.352;19.390;2022-07-11T12:38:26;97910.39;;;22.30;52.64
50011;BME280;35899;50.352;19.390;2022-07-11T12:41:01;97910.23;;;23.52;50.83
50011;BME280;35899;50.352;19.390;2022-07-11T12:43:51;97915.61;;;26.09;46.80
50011;BME280;35899;50.352;19.390;2022-07-11T12:46:39;97909.56;;;26.83;46.02
50011;BME280;35899;50.352;19.390;2022-07-11T12:49:09;97908.44;;;29.24;42.23
50011;BME280;35899;50.352;19.390;2022-07-11T12:51:39;97905.51;;;31.08;39.86
50011;BME280;35899;50.352;19.390;2022-07-11T12:54:09;97899.45;;;32.37;35.93
50011;BME280;35899;50.352;19.390;2022-07-11T12:56:38;97904.66;;;33.15;33.95
50011;BME280;35899;50.352;19.390;2022-07-11T12:59:17;97910.06;;;32.65;33.18
50011;BME280;35899;50.352;19.390;2022-07-11T13:02:08;97907.23;;;33.29;32.69
50011;BME280;35899;50.352;19.390;2022-07-11T13:10:22;97901.77;;;36.12;29.14
50011;BME280;35899;50.352;19.390;2022-07-11T13:12:52;97906.62;;;36.86;27.60
50011;BME280;35899;50.352;19.390;2022-07-11T13:15:21;97901.86;;;37.12;26.89
50011;BME280;35899;50.352;19.390;2022-07-11T13:17:51;97903.34;;;37.33;26.03
50011;BME280;35899;50.352;19.390;2022-07-11T13:20:22;97908.65;;;37.09;25.92
50011;BME280;35899;50.352;19.390;2022-07-11T13:22:50;97916.84;;;37.39;25.90
50011;BME280;35899;50.352;19.390;2022-07-11T13:25:19;97903.91;;;37.94;26.00
50011;BME280;35899;50.352;19.390;2022-07-11T13:27:47;97917.23;;;38.41;24.97
50011;BME280;35899;50.352;19.390;2022-07-11T13:30:17;97910.78;;;38.80;24.91
50011;BME280;35899;50.352;19.390;2022-07-11T13:32:48;97913.48;;;39.21;24.15
50011;BME280;35899;50.352;19.390;2022-07-11T13:35:17;97918.81;;;39.78;24.12
50011;BME280;35899;50.352;19.390;2022-07-11T13:37:46;97913.00;;;39.00;22.17
50011;BME280;35899;50.352;19.390;2022-07-11T13:40:19;97922.80;;;36.15;23.10
50011;BME280;35899;50.352;19.390;2022-07-11T13:42:48;97914.75;;;33.29;24.33
50011;BME280;35899;50.352;19.390;2022-07-11T13:45:18;97936.77;;;30.76;26.27